sensor_id;sensor_type;location;lat;lon;timestamp;P1;durP1;ratioP1;P2;durP2;ratioP2
51810;SDS011;52468;40.116;18.296;2023-07-28T00:00:49;3.50;;;1.93;;
51810;SDS011;52468;40.116;18.296;2023-07-28T00:03:17;2.50;;;1.90;;
51810;SDS011;52468;40.116;18.296;2023-07-28T00:05:45;5.20;;;2.17;;
51810;SDS011;52468;40.116;18.296;2023-07-28T00:08:13;2.87;;;1.87;;
51810;SDS011;52468;40.116;18.296;2023-07-28T00:10:41;3.73;;;1.80;;
51810;SDS011;52468;40.116;18.296;2023-07-28T00:13:09;2.10;;;1.63;;
51810;SDS011;52468;40.116;18.296;2023-07-28T00:15:37;4.33;;;2.00;;
51810;SDS011;52468;40.116;18.296;2023-07-28T00:18:05;3.17;;;1.70;;
51810;SDS011;52468;40.116;18.296;2023-07-28T00:20:33;3.37;;;1.93;;
51810;SDS011;52468;40.116;18.296;2023-07-28T00:23:01;3.93;;;1.87;;
51810;SDS011;52468;40.116;18.296;2023-07-28T00:25:29;4.77;;;2.70;;
51810;SDS011;52468;40.116;18.296;2023-07-28T00:27:57;4.90;;;2.53;;
51810;SDS011;52468;40.116;18.296;2023-07-28T00:30:25;6.77;;;1.93;;
51810;SDS011;52468;40.116;18.296;2023-07-28T00:32:53;5.53;;;1.77;;
51810;SDS011;52468;40.116;18.296;2023-07-28T00:35:21;3.40;;;1.60;;
51810;SDS011;52468;40.116;18.296;2023-07-28T00:37:49;3.03;;;1.83;;
51810;SDS011;52468;40.116;18.296;2023-07-28T00:40:17;5.23;;;1.93;;
51810;SDS011;52468;40.116;18.296;2023-07-28T00:42:45;5.27;;;1.73;;
51810;SDS011;52468;40.116;18.296;2023-07-28T00:45:13;5.60;;;1.60;;
51810;SDS011;52468;40.116;18.296;2023-07-28T00:47:41;4.30;;;2.17;;
51810;SDS011;52468;40.116;18.296;2023-07-28T00:50:09;3.20;;;2.00;;
51810;SDS011;52468;40.116;18.296;2023-07-28T00:52:39;3.67;;;2.27;;
51810;SDS011;52468;40.116;18.296;2023-07-28T00:55:07;2.97;;;1.80;;
51810;SDS011;52468;40.116;18.296;2023-07-28T00:57:35;3.90;;;2.10;;
51810;SDS011;52468;40.116;18.296;2023-07-28T01:00:06;2.37;;;1.57;;
51810;SDS011;52468;40.116;18.296;2023-07-28T01:02:34;3.77;;;2.03;;
51810;SDS011;52468;40.116;18.296;2023-07-28T01:05:03;3.83;;;1.73;;
51810;SDS011;52468;40.116;18.296;2023-07-28T01:10:20;4.73;;;2.07;;
51810;SDS011;52468;40.116;18.296;2023-07-28T01:12:53;2.73;;;1.53;;
51810;SDS011;52468;40.116;18.296;2023-07-28T01:15:21;6.70;;;2.27;;
51810;SDS011;52468;40.116;18.296;2023-07-28T01:17:49;3.90;;;1.70;;
51810;SDS011;52468;40.116;18.296;2023-07-28T01:20:17;4.17;;;1.83;;
51810;SDS011;52468;40.116;18.296;2023-07-28T01:25:47;3.30;;;1.80;;
51810;SDS011;52468;40.116;18.296;2023-07-28T01:28:33;5.73;;;2.17;;
51810;SDS011;52468;40.116;18.296;2023-07-28T01:31:02;3.57;;;1.90;;
51810;SDS011;52468;40.116;18.296;2023-07-28T01:33:31;4.37;;;2.10;;
51810;SDS011;52468;40.116;18.296;2023-07-28T01:36:00;3.60;;;2.37;;
51810;SDS011;52468;40.116;18.296;2023-07-28T01:38:28;4.07;;;2.10;;
51810;SDS011;52468;40.116;18.296;2023-07-28T01:40:56;3.90;;;1.93;;
51810;SDS011;52468;40.116;18.296;2023-07-28T01:43:24;3.70;;;3.17;;
51810;SDS011;52468;40.116;18.296;2023-07-28T01:45:52;2.97;;;1.87;;
51810;SDS011;52468;40.116;18.296;2023-07-28T01:48:20;3.63;;;2.20;;
51810;SDS011;52468;40.116;18.296;2023-07-28T01:50:48;2.73;;;1.80;;
51810;SDS011;52468;40.116;18.296;2023-07-28T01:53:15;3.10;;;2.00;;
51810;SDS011;52468;40.116;18.296;2023-07-28T01:55:43;3.07;;;2.13;;
51810;SDS011;52468;40.116;18.296;2023-07-28T01:58:12;2.73;;;1.83;;
51810;SDS011;52468;40.116;18.296;2023-07-28T02:00:40;5.50;;;1.87;;
51810;SDS011;52468;40.116;18.296;2023-07-28T02:03:08;4.17;;;2.20;;
51810;SDS011;52468;40.116;18.296;2023-07-28T02:05:36;3.37;;;1.97;;
51810;SDS011;52468;40.116;18.296;2023-07-28T02:08:03;2.30;;;1.47;;
51810;SDS011;52468;40.116;18.296;2023-07-28T02:10:31;4.47;;;2.87;;
51810;SDS011;52468;40.116;18.296;2023-07-28T02:12:59;4.07;;;1.70;;
51810;SDS011;52468;40.116;18.296;2023-07-28T02:15:27;3.50;;;1.80;;
51810;SDS011;52468;40.116;18.296;2023-07-28T02:17:55;5.57;;;2.23;;
51810;SDS011;52468;40.116;18.296;2023-07-28T02:20:24;4.33;;;2.63;;
51810;SDS011;52468;40.116;18.296;2023-07-28T02:22:52;4.30;;;1.97;;
51810;SDS011;52468;40.116;18.296;2023-07-28T02:25:20;5.10;;;2.90;;
51810;SDS011;52468;40.116;18.296;2023-07-28T02:27:48;3.93;;;2.40;;
51810;SDS011;52468;40.116;18.296;2023-07-28T02:30:17;3.60;;;2.10;;
51810;SDS011;52468;40.116;18.296;2023-07-28T02:32:45;5.27;;;2.40;;
51810;SDS011;52468;40.116;18.296;2023-07-28T02:35:12;7.37;;;2.53;;
51810;SDS011;52468;40.116;18.296;2023-07-28T02:37:41;4.40;;;1.90;;
51810;SDS011;52468;40.116;18.296;2023-07-28T02:40:09;5.27;;;2.20;;
51810;SDS011;52468;40.116;18.296;2023-07-28T02:42:38;4.13;;;2.10;;
51810;SDS011;52468;40.116;18.296;2023-07-28T02:45:06;3.93;;;1.83;;
51810;SDS011;52468;40.116;18.296;2023-07-28T02:47:34;3.13;;;2.10;;
51810;SDS011;52468;40.116;18.296;2023-07-28T02:50:03;3.63;;;2.00;;
51810;SDS011;52468;40.116;18.296;2023-07-28T02:52:31;4.20;;;2.40;;
51810;SDS011;52468;40.116;18.296;2023-07-28T02:54:59;4.03;;;2.03;;
51810;SDS011;52468;40.116;18.296;2023-07-28T02:57:30;2.50;;;1.70;;
51810;SDS011;52468;40.116;18.296;2023-07-28T02:59:57;3.27;;;1.73;;
51810;SDS011;52468;40.116;18.296;2023-07-28T03:02:26;2.90;;;1.60;;
51810;SDS011;52468;40.116;18.296;2023-07-28T03:04:56;7.17;;;2.83;;
51810;SDS011;52468;40.116;18.296;2023-07-28T03:07:33;3.93;;;2.00;;
51810;SDS011;52468;40.116;18.296;2023-07-28T03:10:06;4.43;;;2.20;;
51810;SDS011;52468;40.116;18.296;2023-07-28T03:12:36;5.17;;;1.93;;
51810;SDS011;52468;40.116;18.296;2023-07-28T03:15:04;3.03;;;1.73;;
51810;SDS011;52468;40.116;18.296;2023-07-28T03:17:32;3.13;;;2.20;;
51810;SDS011;52468;40.116;18.296;2023-07-28T03:20:00;4.40;;;1.70;;
51810;SDS011;52468;40.116;18.296;2023-07-28T03:22:29;5.80;;;2.60;;
51810;SDS011;52468;40.116;18.296;2023-07-28T03:24:57;4.30;;;2.03;;
51810;SDS011;52468;40.116;18.296;2023-07-28T03:27:25;2.63;;;2.07;;
51810;SDS011;52468;40.116;18.296;2023-07-28T03:29:53;4.20;;;2.10;;
51810;SDS011;52468;40.116;18.296;2023-07-28T03:32:22;4.90;;;2.57;;
51810;SDS011;52468;40.116;18.296;2023-07-28T03:34:50;3.83;;;2.40;;
51810;SDS011;52468;40.116;18.296;2023-07-28T03:37:20;2.97;;;1.83;;
51810;SDS011;52468;40.116;18.296;2023-07-28T03:39:48;3.87;;;2.07;;
51810;SDS011;52468;40.116;18.296;2023-07-28T03:42:16;3.37;;;2.13;;
51810;SDS011;52468;40.116;18.296;2023-07-28T03:44:44;2.63;;;1.83;;
51810;SDS011;52468;40.116;18.296;2023-07-28T03:47:12;3.03;;;2.33;;
51810;SDS011;52468;40.116;18.296;2023-07-28T03:49:40;4.00;;;2.10;;
51810;SDS011;52468;40.116;18.296;2023-07-28T03:52:08;5.13;;;1.70;;
51810;SDS011;52468;40.116;18.296;2023-07-28T03:54:36;3.80;;;1.87;;
51810;SDS011;52468;40.116;18.296;2023-07-28T03:57:04;3.50;;;1.63;;
51810;SDS011;52468;40.116;18.296;2023-07-28T03:59:32;4.70;;;2.20;;
51810;SDS011;52468;40.116;18.296;2023-07-28T04:02:00;3.60;;;2.27;;
51810;SDS011;52468;40.116;18.296;2023-07-28T04:04:28;3.00;;;1.80;;
51810;SDS011;52468;40.116;18.296;2023-07-28T04:06:56;4.23;;;2.23;;
51810;SDS011;52468;40.116;18.296;2023-07-28T04:09:24;4.53;;;2.20;;
51810;SDS011;52468;40.116;18.296;2023-07-28T04:11:52;3.70;;;1.90;;
51810;SDS011;52468;40.116;18.296;2023-07-28T04:14:19;2.23;;;1.90;;
51810;SDS011;52468;40.116;18.296;2023-07-28T04:16:47;3.13;;;1.87;;
51810;SDS011;52468;40.116;18.296;2023-07-28T04:19:15;3.17;;;1.90;;
51810;SDS011;52468;40.116;18.296;2023-07-28T04:21:43;5.93;;;2.57;;
51810;SDS011;52468;40.116;18.296;2023-07-28T04:24:12;3.73;;;1.90;;
51810;SDS011;52468;40.116;18.296;2023-07-28T04:26:45;4.78;;;2.00;;
51810;SDS011;52468;40.116;18.296;2023-07-28T04:29:16;3.87;;;2.50;;
51810;SDS011;52468;40.116;18.296;2023-07-28T04:31:44;6.73;;;2.03;;
51810;SDS011;52468;40.116;18.296;2023-07-28T04:34:15;2.97;;;2.20;;
51810;SDS011;52468;40.116;18.296;2023-07-28T04:37:02;9.17;;;2.63;;
51810;SDS011;52468;40.116;18.296;2023-07-28T04:39:42;4.33;;;2.00;;
51810;SDS011;52468;40.116;18.296;2023-07-28T04:42:12;5.93;;;2.30;;
51810;SDS011;52468;40.116;18.296;2023-07-28T04:44:44;6.03;;;2.58;;
51810;SDS011;52468;40.116;18.296;2023-07-28T04:47:14;7.13;;;2.77;;
51810;SDS011;52468;40.116;18.296;2023-07-28T04:49:42;7.40;;;3.10;;
51810;SDS011;52468;40.116;18.296;2023-07-28T04:52:10;6.60;;;2.90;;
51810;SDS011;52468;40.116;18.296;2023-07-28T04:54:39;5.10;;;2.80;;
51810;SDS011;52468;40.116;18.296;2023-07-28T04:57:07;6.30;;;3.43;;
51810;SDS011;52468;40.116;18.296;2023-07-28T04:59:37;7.07;;;3.17;;
51810;SDS011;52468;40.116;18.296;2023-07-28T05:02:05;5.03;;;3.73;;
51810;SDS011;52468;40.116;18.296;2023-07-28T05:04:33;6.70;;;3.43;;
51810;SDS011;52468;40.116;18.296;2023-07-28T05:07:03;9.87;;;4.33;;
51810;SDS011;52468;40.116;18.296;2023-07-28T05:09:31;5.57;;;3.40;;
51810;SDS011;52468;40.116;18.296;2023-07-28T05:11:59;7.27;;;3.87;;
51810;SDS011;52468;40.116;18.296;2023-07-28T05:14:29;12.47;;;4.97;;
51810;SDS011;52468;40.116;18.296;2023-07-28T05:16:57;7.93;;;3.47;;
51810;SDS011;52468;40.116;18.296;2023-07-28T05:19:36;6.73;;;4.13;;
51810;SDS011;52468;40.116;18.296;2023-07-28T05:22:24;17.50;;;5.87;;
51810;SDS011;52468;40.116;18.296;2023-07-28T05:24:54;11.43;;;5.30;;
51810;SDS011;52468;40.116;18.296;2023-07-28T05:27:27;13.45;;;4.90;;
51810;SDS011;52468;40.116;18.296;2023-07-28T05:29:54;9.67;;;4.90;;
51810;SDS011;52468;40.116;18.296;2023-07-28T05:32:22;15.83;;;5.23;;
51810;SDS011;52468;40.116;18.296;2023-07-28T05:35:29;9.77;;;3.93;;
51810;SDS011;52468;40.116;18.296;2023-07-28T05:37:57;7.37;;;3.43;;
51810;SDS011;52468;40.116;18.296;2023-07-28T05:40:25;7.73;;;3.50;;
51810;SDS011;52468;40.116;18.296;2023-07-28T05:42:53;8.07;;;3.13;;
51810;SDS011;52468;40.116;18.296;2023-07-28T05:45:20;14.00;;;5.00;;
51810;SDS011;52468;40.116;18.296;2023-07-28T05:47:48;10.67;;;3.43;;
51810;SDS011;52468;40.116;18.296;2023-07-28T05:50:16;9.63;;;3.50;;
51810;SDS011;52468;40.116;18.296;2023-07-28T05:52:44;13.67;;;4.70;;
51810;SDS011;52468;40.116;18.296;2023-07-28T05:55:12;35.83;;;5.27;;
51810;SDS011;52468;40.116;18.296;2023-07-28T05:57:40;13.63;;;4.80;;
51810;SDS011;52468;40.116;18.296;2023-07-28T06:00:09;12.70;;;4.03;;
51810;SDS011;52468;40.116;18.296;2023-07-28T06:02:42;15.23;;;5.05;;
51810;SDS011;52468;40.116;18.296;2023-07-28T06:07:53;10.50;;;3.23;;
51810;SDS011;52468;40.116;18.296;2023-07-28T06:10:21;10.73;;;3.70;;
51810;SDS011;52468;40.116;18.296;2023-07-28T06:12:50;11.70;;;2.87;;
51810;SDS011;52468;40.116;18.296;2023-07-28T06:15:17;5.23;;;1.97;;
51810;SDS011;52468;40.116;18.296;2023-07-28T06:17:46;4.03;;;1.30;;
51810;SDS011;52468;40.116;18.296;2023-07-28T06:20:13;2.10;;;1.17;;
51810;SDS011;52468;40.116;18.296;2023-07-28T06:22:41;2.03;;;1.00;;
51810;SDS011;52468;40.116;18.296;2023-07-28T06:25:09;3.17;;;1.57;;
51810;SDS011;52468;40.116;18.296;2023-07-28T06:27:38;2.70;;;1.30;;
51810;SDS011;52468;40.116;18.296;2023-07-28T06:30:06;8.30;;;2.13;;
51810;SDS011;52468;40.116;18.296;2023-07-28T06:32:34;7.73;;;1.70;;
51810;SDS011;52468;40.116;18.296;2023-07-28T06:35:03;3.67;;;1.67;;
51810;SDS011;52468;40.116;18.296;2023-07-28T06:37:31;5.47;;;1.70;;
51810;SDS011;52468;40.116;18.296;2023-07-28T06:39:59;4.70;;;1.70;;
51810;SDS011;52468;40.116;18.296;2023-07-28T06:42:27;6.37;;;2.27;;
51810;SDS011;52468;40.116;18.296;2023-07-28T06:44:56;3.20;;;2.13;;
51810;SDS011;52468;40.116;18.296;2023-07-28T06:47:24;4.57;;;1.93;;
51810;SDS011;52468;40.116;18.296;2023-07-28T06:49:52;4.67;;;2.43;;
51810;SDS011;52468;40.116;18.296;2023-07-28T06:52:20;4.50;;;2.07;;
51810;SDS011;52468;40.116;18.296;2023-07-28T06:54:48;3.63;;;1.57;;
51810;SDS011;52468;40.116;18.296;2023-07-28T06:57:16;3.27;;;1.60;;
51810;SDS011;52468;40.116;18.296;2023-07-28T06:59:47;2.53;;;1.67;;
51810;SDS011;52468;40.116;18.296;2023-07-28T07:02:15;3.50;;;1.50;;
51810;SDS011;52468;40.116;18.296;2023-07-28T07:04:43;3.30;;;1.83;;
51810;SDS011;52468;40.116;18.296;2023-07-28T07:07:11;12.07;;;3.10;;
51810;SDS011;52468;40.116;18.296;2023-07-28T07:09:38;1.53;;;0.93;;
51810;SDS011;52468;40.116;18.296;2023-07-28T07:12:08;3.53;;;1.23;;
51810;SDS011;52468;40.116;18.296;2023-07-28T07:14:36;2.67;;;1.20;;
51810;SDS011;52468;40.116;18.296;2023-07-28T07:17:05;25.23;;;4.40;;
51810;SDS011;52468;40.116;18.296;2023-07-28T07:19:33;3.90;;;1.47;;
51810;SDS011;52468;40.116;18.296;2023-07-28T07:22:01;2.13;;;1.27;;
51810;SDS011;52468;40.116;18.296;2023-07-28T07:24:30;2.28;;;0.98;;
51810;SDS011;52468;40.116;18.296;2023-07-28T07:26:58;6.95;;;1.65;;
51810;SDS011;52468;40.116;18.296;2023-07-28T07:29:28;2.83;;;1.42;;
51810;SDS011;52468;40.116;18.296;2023-07-28T07:31:56;3.85;;;1.20;;
51810;SDS011;52468;40.116;18.296;2023-07-28T07:34:24;1.70;;;1.20;;
51810;SDS011;52468;40.116;18.296;2023-07-28T07:36:52;2.90;;;1.55;;
51810;SDS011;52468;40.116;18.296;2023-07-28T07:39:20;2.83;;;1.30;;
51810;SDS011;52468;40.116;18.296;2023-07-28T07:41:48;4.95;;;1.85;;
51810;SDS011;52468;40.116;18.296;2023-07-28T07:44:15;1.73;;;1.20;;
51810;SDS011;52468;40.116;18.296;2023-07-28T07:46:43;2.03;;;1.70;;
51810;SDS011;52468;40.116;18.296;2023-07-28T07:49:11;1.60;;;1.48;;
51810;SDS011;52468;40.116;18.296;2023-07-28T07:51:40;3.25;;;1.58;;
51810;SDS011;52468;40.116;18.296;2023-07-28T07:54:08;3.35;;;1.40;;
51810;SDS011;52468;40.116;18.296;2023-07-28T07:56:36;4.03;;;1.30;;
51810;SDS011;52468;40.116;18.296;2023-07-28T07:59:04;1.88;;;1.10;;
51810;SDS011;52468;40.116;18.296;2023-07-28T08:01:31;4.63;;;1.20;;
51810;SDS011;52468;40.116;18.296;2023-07-28T08:03:59;3.22;;;2.38;;
51810;SDS011;52468;40.116;18.296;2023-07-28T08:06:27;5.43;;;1.38;;
51810;SDS011;52468;40.116;18.296;2023-07-28T08:08:56;2.00;;;1.25;;
51810;SDS011;52468;40.116;18.296;2023-07-28T08:11:26;2.60;;;1.52;;
51810;SDS011;52468;40.116;18.296;2023-07-28T08:13:55;3.22;;;1.60;;
51810;SDS011;52468;40.116;18.296;2023-07-28T08:16:22;2.33;;;2.03;;
51810;SDS011;52468;40.116;18.296;2023-07-28T08:18:50;1.98;;;1.40;;
51810;SDS011;52468;40.116;18.296;2023-07-28T08:21:18;4.65;;;1.35;;
51810;SDS011;52468;40.116;18.296;2023-07-28T08:23:46;4.13;;;1.75;;
51810;SDS011;52468;40.116;18.296;2023-07-28T08:26:14;4.75;;;1.50;;
51810;SDS011;52468;40.116;18.296;2023-07-28T08:28:42;1.95;;;1.42;;
51810;SDS011;52468;40.116;18.296;2023-07-28T08:31:10;1.75;;;1.13;;
51810;SDS011;52468;40.116;18.296;2023-07-28T08:33:38;2.70;;;1.55;;
51810;SDS011;52468;40.116;18.296;2023-07-28T08:36:05;1.92;;;1.30;;
51810;SDS011;52468;40.116;18.296;2023-07-28T08:38:33;5.07;;;1.67;;
51810;SDS011;52468;40.116;18.296;2023-07-28T08:41:01;2.80;;;1.40;;
51810;SDS011;52468;40.116;18.296;2023-07-28T08:43:30;2.50;;;1.70;;
51810;SDS011;52468;40.116;18.296;2023-07-28T08:45:59;3.58;;;2.95;;
51810;SDS011;52468;40.116;18.296;2023-07-28T08:48:26;5.32;;;2.03;;
51810;SDS011;52468;40.116;18.296;2023-07-28T08:50:54;2.58;;;1.75;;
51810;SDS011;52468;40.116;18.296;2023-07-28T08:53:22;2.75;;;1.35;;
51810;SDS011;52468;40.116;18.296;2023-07-28T08:55:51;1.63;;;1.27;;
51810;SDS011;52468;40.116;18.296;2023-07-28T08:58:20;1.50;;;1.33;;
51810;SDS011;52468;40.116;18.296;2023-07-28T09:00:49;3.13;;;1.70;;
51810;SDS011;52468;40.116;18.296;2023-07-28T09:03:18;6.15;;;1.92;;
51810;SDS011;52468;40.116;18.296;2023-07-28T09:05:47;4.47;;;1.67;;
51810;SDS011;52468;40.116;18.296;2023-07-28T09:08:15;4.45;;;1.50;;
51810;SDS011;52468;40.116;18.296;2023-07-28T09:10:47;2.88;;;1.75;;
51810;SDS011;52468;40.116;18.296;2023-07-28T09:13:16;7.50;;;3.28;;
51810;SDS011;52468;40.116;18.296;2023-07-28T09:15:47;3.45;;;1.80;;
51810;SDS011;52468;40.116;18.296;2023-07-28T09:18:15;5.90;;;1.50;;
51810;SDS011;52468;40.116;18.296;2023-07-28T09:20:44;6.88;;;1.80;;
51810;SDS011;52468;40.116;18.296;2023-07-28T09:23:13;4.22;;;1.65;;
51810;SDS011;52468;40.116;18.296;2023-07-28T09:25:42;1.98;;;1.77;;
51810;SDS011;52468;40.116;18.296;2023-07-28T09:28:10;7.38;;;2.08;;
51810;SDS011;52468;40.116;18.296;2023-07-28T09:30:48;2.90;;;1.77;;
51810;SDS011;52468;40.116;18.296;2023-07-28T09:33:29;1.88;;;1.50;;
51810;SDS011;52468;40.116;18.296;2023-07-28T09:36:06;4.88;;;2.05;;
51810;SDS011;52468;40.116;18.296;2023-07-28T09:38:39;7.22;;;1.63;;
51810;SDS011;52468;40.116;18.296;2023-07-28T09:41:09;2.83;;;1.98;;
51810;SDS011;52468;40.116;18.296;2023-07-28T09:43:39;1.75;;;1.58;;
51810;SDS011;52468;40.116;18.296;2023-07-28T09:46:08;6.35;;;2.33;;
51810;SDS011;52468;40.116;18.296;2023-07-28T09:48:38;2.90;;;1.83;;
51810;SDS011;52468;40.116;18.296;2023-07-28T09:51:14;4.53;;;1.58;;
51810;SDS011;52468;40.116;18.296;2023-07-28T09:53:55;2.67;;;1.42;;
51810;SDS011;52468;40.116;18.296;2023-07-28T09:56:27;2.85;;;2.13;;
51810;SDS011;52468;40.116;18.296;2023-07-28T09:58:58;1.52;;;1.40;;
51810;SDS011;52468;40.116;18.296;2023-07-28T10:01:28;2.13;;;1.40;;
51810;SDS011;52468;40.116;18.296;2023-07-28T10:03:56;2.80;;;1.40;;
51810;SDS011;52468;40.116;18.296;2023-07-28T10:06:25;3.63;;;1.65;;
51810;SDS011;52468;40.116;18.296;2023-07-28T10:08:54;8.48;;;1.63;;
51810;SDS011;52468;40.116;18.296;2023-07-28T10:11:22;3.33;;;1.70;;
51810;SDS011;52468;40.116;18.296;2023-07-28T10:13:51;1.63;;;1.45;;
51810;SDS011;52468;40.116;18.296;2023-07-28T10:16:29;1.23;;;1.13;;
51810;SDS011;52468;40.116;18.296;2023-07-28T10:18:59;1.27;;;1.17;;
51810;SDS011;52468;40.116;18.296;2023-07-28T10:21:27;1.70;;;1.50;;
51810;SDS011;52468;40.116;18.296;2023-07-28T10:23:57;2.97;;;1.58;;
51810;SDS011;52468;40.116;18.296;2023-07-28T10:26:35;1.50;;;1.40;;
51810;SDS011;52468;40.116;18.296;2023-07-28T10:31:37;2.42;;;1.20;;
51810;SDS011;52468;40.116;18.296;2023-07-28T10:34:16;2.00;;;1.65;;
51810;SDS011;52468;40.116;18.296;2023-07-28T10:36:46;2.38;;;1.65;;
51810;SDS011;52468;40.116;18.296;2023-07-28T10:39:15;2.55;;;1.80;;
51810;SDS011;52468;40.116;18.296;2023-07-28T10:42:04;4.00;;;1.88;;
51810;SDS011;52468;40.116;18.296;2023-07-28T10:44:33;4.20;;;1.55;;
51810;SDS011;52468;40.116;18.296;2023-07-28T10:47:02;1.77;;;1.67;;
51810;SDS011;52468;40.116;18.296;2023-07-28T10:49:36;2.05;;;1.42;;
51810;SDS011;52468;40.116;18.296;2023-07-28T10:52:04;2.05;;;1.40;;
51810;SDS011;52468;40.116;18.296;2023-07-28T10:54:32;1.20;;;1.10;;
51810;SDS011;52468;40.116;18.296;2023-07-28T10:57:01;2.10;;;1.30;;
51810;SDS011;52468;40.116;18.296;2023-07-28T10:59:30;2.10;;;1.33;;
51810;SDS011;52468;40.116;18.296;2023-07-28T11:01:58;2.38;;;1.50;;
51810;SDS011;52468;40.116;18.296;2023-07-28T11:04:26;3.97;;;1.42;;
51810;SDS011;52468;40.116;18.296;2023-07-28T11:06:54;1.73;;;1.30;;
51810;SDS011;52468;40.116;18.296;2023-07-28T11:09:23;1.13;;;1.02;;
51810;SDS011;52468;40.116;18.296;2023-07-28T11:11:51;1.50;;;1.20;;
51810;SDS011;52468;40.116;18.296;2023-07-28T11:14:19;2.30;;;1.23;;
51810;SDS011;52468;40.116;18.296;2023-07-28T11:16:47;1.67;;;1.20;;
51810;SDS011;52468;40.116;18.296;2023-07-28T11:19:17;1.92;;;1.33;;
51810;SDS011;52468;40.116;18.296;2023-07-28T11:21:51;1.73;;;1.23;;
51810;SDS011;52468;40.116;18.296;2023-07-28T11:24:20;1.58;;;1.20;;
51810;SDS011;52468;40.116;18.296;2023-07-28T11:26:49;0.98;;;0.88;;
51810;SDS011;52468;40.116;18.296;2023-07-28T11:29:18;2.38;;;1.10;;
51810;SDS011;52468;40.116;18.296;2023-07-28T11:31:47;1.35;;;1.13;;
51810;SDS011;52468;40.116;18.296;2023-07-28T11:34:16;1.77;;;1.27;;
51810;SDS011;52468;40.116;18.296;2023-07-28T11:36:45;1.95;;;1.20;;
51810;SDS011;52468;40.116;18.296;2023-07-28T11:39:13;1.45;;;1.15;;
51810;SDS011;52468;40.116;18.296;2023-07-28T11:41:43;1.00;;;1.00;;
51810;SDS011;52468;40.116;18.296;2023-07-28T11:44:15;2.00;;;1.20;;
51810;SDS011;52468;40.116;18.296;2023-07-28T11:46:43;2.05;;;1.27;;
51810;SDS011;52468;40.116;18.296;2023-07-28T11:49:18;1.20;;;1.10;;
51810;SDS011;52468;40.116;18.296;2023-07-28T11:51:50;1.15;;;1.02;;
51810;SDS011;52468;40.116;18.296;2023-07-28T11:54:21;1.10;;;1.00;;
51810;SDS011;52468;40.116;18.296;2023-07-28T11:56:50;3.20;;;1.67;;
51810;SDS011;52468;40.116;18.296;2023-07-28T11:59:21;2.22;;;1.10;;
51810;SDS011;52468;40.116;18.296;2023-07-28T12:01:56;3.70;;;1.48;;
51810;SDS011;52468;40.116;18.296;2023-07-28T12:04:34;1.77;;;1.50;;
51810;SDS011;52468;40.116;18.296;2023-07-28T12:07:13;1.75;;;1.13;;
51810;SDS011;52468;40.116;18.296;2023-07-28T12:12:24;2.35;;;1.35;;
51810;SDS011;52468;40.116;18.296;2023-07-28T12:14:54;2.05;;;1.45;;
51810;SDS011;52468;40.116;18.296;2023-07-28T12:17:26;1.88;;;1.67;;
51810;SDS011;52468;40.116;18.296;2023-07-28T12:20:15;1.20;;;1.10;;
51810;SDS011;52468;40.116;18.296;2023-07-28T12:22:44;3.03;;;1.25;;
51810;SDS011;52468;40.116;18.296;2023-07-28T12:25:12;2.17;;;1.33;;
51810;SDS011;52468;40.116;18.296;2023-07-28T12:27:42;1.73;;;1.40;;
51810;SDS011;52468;40.116;18.296;2023-07-28T12:30:11;2.10;;;1.00;;
51810;SDS011;52468;40.116;18.296;2023-07-28T12:32:41;3.50;;;1.70;;
51810;SDS011;52468;40.116;18.296;2023-07-28T12:35:28;1.83;;;1.55;;
51810;SDS011;52468;40.116;18.296;2023-07-28T12:38:04;1.15;;;1.02;;
51810;SDS011;52468;40.116;18.296;2023-07-28T12:40:36;1.38;;;1.15;;
51810;SDS011;52468;40.116;18.296;2023-07-28T12:43:07;1.58;;;1.00;;
51810;SDS011;52468;40.116;18.296;2023-07-28T12:45:34;1.17;;;1.08;;
51810;SDS011;52468;40.116;18.296;2023-07-28T12:48:05;1.90;;;1.45;;
51810;SDS011;52468;40.116;18.296;2023-07-28T12:50:33;1.67;;;1.30;;
51810;SDS011;52468;40.116;18.296;2023-07-28T12:53:04;1.13;;;0.80;;
51810;SDS011;52468;40.116;18.296;2023-07-28T12:55:38;3.08;;;1.38;;
51810;SDS011;52468;40.116;18.296;2023-07-28T12:58:26;3.03;;;1.27;;
51810;SDS011;52468;40.116;18.296;2023-07-28T13:00:56;1.50;;;1.20;;
51810;SDS011;52468;40.116;18.296;2023-07-28T13:03:29;1.33;;;1.10;;
51810;SDS011;52468;40.116;18.296;2023-07-28T13:05:57;2.78;;;1.15;;
51810;SDS011;52468;40.116;18.296;2023-07-28T13:08:25;1.70;;;0.90;;
51810;SDS011;52468;40.116;18.296;2023-07-28T13:10:55;1.42;;;1.10;;
51810;SDS011;52468;40.116;18.296;2023-07-28T13:13:26;1.13;;;0.98;;
51810;SDS011;52468;40.116;18.296;2023-07-28T13:15:57;1.35;;;0.90;;
51810;SDS011;52468;40.116;18.296;2023-07-28T13:18:25;0.93;;;0.93;;
51810;SDS011;52468;40.116;18.296;2023-07-28T13:20:53;3.00;;;1.20;;
51810;SDS011;52468;40.116;18.296;2023-07-28T13:23:21;1.20;;;0.98;;
51810;SDS011;52468;40.116;18.296;2023-07-28T13:25:49;1.10;;;1.00;;
51810;SDS011;52468;40.116;18.296;2023-07-28T13:28:17;2.83;;;1.00;;
51810;SDS011;52468;40.116;18.296;2023-07-28T13:30:45;1.88;;;1.20;;
51810;SDS011;52468;40.116;18.296;2023-07-28T13:33:13;3.53;;;1.40;;
51810;SDS011;52468;40.116;18.296;2023-07-28T13:35:41;1.45;;;0.93;;
51810;SDS011;52468;40.116;18.296;2023-07-28T13:38:09;1.30;;;0.80;;
51810;SDS011;52468;40.116;18.296;2023-07-28T13:40:37;2.63;;;1.30;;
51810;SDS011;52468;40.116;18.296;2023-07-28T13:43:05;1.48;;;1.10;;
51810;SDS011;52468;40.116;18.296;2023-07-28T13:45:33;1.58;;;1.38;;
51810;SDS011;52468;40.116;18.296;2023-07-28T13:48:01;2.05;;;1.10;;
51810;SDS011;52468;40.116;18.296;2023-07-28T13:50:29;1.00;;;1.00;;
51810;SDS011;52468;40.116;18.296;2023-07-28T13:53:00;2.70;;;1.02;;
51810;SDS011;52468;40.116;18.296;2023-07-28T13:55:48;1.98;;;1.30;;
51810;SDS011;52468;40.116;18.296;2023-07-28T13:58:24;1.13;;;1.02;;
51810;SDS011;52468;40.116;18.296;2023-07-28T14:00:52;1.60;;;1.13;;
51810;SDS011;52468;40.116;18.296;2023-07-28T14:03:20;1.05;;;0.95;;
51810;SDS011;52468;40.116;18.296;2023-07-28T14:05:48;2.30;;;1.50;;
51810;SDS011;52468;40.116;18.296;2023-07-28T14:08:16;1.88;;;1.55;;
51810;SDS011;52468;40.116;18.296;2023-07-28T14:10:44;3.05;;;1.08;;
51810;SDS011;52468;40.116;18.296;2023-07-28T14:13:13;4.10;;;0.98;;
51810;SDS011;52468;40.116;18.296;2023-07-28T14:15:41;1.48;;;1.20;;
51810;SDS011;52468;40.116;18.296;2023-07-28T14:18:08;1.85;;;1.58;;
51810;SDS011;52468;40.116;18.296;2023-07-28T14:20:36;1.60;;;1.00;;
51810;SDS011;52468;40.116;18.296;2023-07-28T14:23:20;2.53;;;1.13;;
51810;SDS011;52468;40.116;18.296;2023-07-28T14:25:49;1.15;;;1.00;;
51810;SDS011;52468;40.116;18.296;2023-07-28T14:28:17;1.55;;;1.45;;
51810;SDS011;52468;40.116;18.296;2023-07-28T14:30:45;4.65;;;2.08;;
51810;SDS011;52468;40.116;18.296;2023-07-28T14:33:14;2.75;;;1.23;;
51810;SDS011;52468;40.116;18.296;2023-07-28T14:35:43;2.97;;;1.30;;
51810;SDS011;52468;40.116;18.296;2023-07-28T14:38:12;2.08;;;1.05;;
51810;SDS011;52468;40.116;18.296;2023-07-28T14:40:40;2.17;;;1.17;;
51810;SDS011;52468;40.116;18.296;2023-07-28T14:43:08;1.50;;;1.40;;
51810;SDS011;52468;40.116;18.296;2023-07-28T14:45:36;1.98;;;1.50;;
51810;SDS011;52468;40.116;18.296;2023-07-28T14:48:04;2.45;;;1.77;;
51810;SDS011;52468;40.116;18.296;2023-07-28T14:50:32;1.55;;;1.45;;
51810;SDS011;52468;40.116;18.296;2023-07-28T14:53:00;2.67;;;1.55;;
51810;SDS011;52468;40.116;18.296;2023-07-28T14:55:28;1.92;;;1.70;;
51810;SDS011;52468;40.116;18.296;2023-07-28T14:57:56;2.25;;;2.05;;
51810;SDS011;52468;40.116;18.296;2023-07-28T15:00:24;1.60;;;1.50;;